Time;durP1;ratioP1;P1;durP2;ratioP2;P2;SDS_P1;SDS_P2;PMS_P1;PMS_P2;Temp;Humidity;BMP_temperature;BMP_pressure;BME280_temperature;BME280_humidity;BME280_pressure;Samples;Min_cycle;Max_cycle;Signal;HPM_P1;HPM_P2
2020/12/22 00:01:17;;;;;;;5.50;2.50;;;14.30;99.90;;;;;;4824150;29;20109;-68
2020/12/22 00:03:43;;;;;;;8.13;2.50;;;14.30;99.90;;;;;;4824192;29;20102;-69
2020/12/22 00:06:10;;;;;;;8.27;3.03;;;14.30;99.90;;;;;;4824221;29;20065;-68
2020/12/22 00:08:36;;;;;;;9.15;2.85;;;14.30;99.90;;;;;;4824181;29;20058;-70
2020/12/22 00:11:02;;;;;;;6.95;2.20;;;14.30;99.90;;;;;;4824184;29;20461;-71
2020/12/22 00:13:28;;;;;;;6.70;2.50;;;14.30;99.90;;;;;;4824149;29;20451;-70
2020/12/22 00:15:53;;;;;;;9.05;2.40;;;14.30;99.90;;;;;;4823823;29;20027;-71
2020/12/22 00:18:19;;;;;;;9.25;3.00;;;14.30;99.90;;;;;;4824189;29;20041;-70
2020/12/22 00:24:07;;;;;;;7.47;2.30;;;14.30;99.90;;;;;;4823890;29;20033;-70
2020/12/22 00:26:33;;;;;;;8.07;2.35;;;14.30;99.90;;;;;;4823976;29;20030;-69
2020/12/22 00:28:59;;;;;;;9.25;2.65;;;14.30;99.90;;;;;;4823734;29;20425;-70
2020/12/22 00:31:25;;;;;;;7.45;2.60;;;14.30;99.90;;;;;;4823611;29;20560;-70
2020/12/22 00:33:51;;;;;;;10.50;2.53;;;14.30;99.90;;;;;;4823585;29;20034;-70
2020/12/22 00:36:16;;;;;;;5.38;2.28;;;14.30;99.90;;;;;;4823870;29;20027;-70
2020/12/22 00:38:45;;;;;;;8.20;2.00;;;14.20;99.90;;;;;;4823959;29;20368;-70
2020/12/22 00:41:14;;;;;;;3.50;1.60;;;14.20;99.90;;;;;;4823927;29;20042;-71
2020/12/22 00:43:41;;;;;;;8.82;2.25;;;14.30;99.90;;;;;;4823905;29;20357;-71
2020/12/22 00:46:07;;;;;;;4.43;1.73;;;14.30;99.90;;;;;;4823798;29;20050;-72
2020/12/22 00:48:33;;;;;;;7.38;2.40;;;14.20;99.90;;;;;;4823740;29;20026;-70
2020/12/22 00:54:20;;;;;;;7.07;2.10;;;14.20;99.90;;;;;;4823504;29;20033;-69
2020/12/22 00:56:49;;;;;;;5.22;2.00;;;14.20;99.90;;;;;;4823726;29;20125;-70
2020/12/22 00:59:14;;;;;;;7.85;2.03;;;14.20;99.90;;;;;;4823641;29;20057;-69
2020/12/22 01:01:40;;;;;;;6.35;1.80;;;14.20;99.90;;;;;;4823382;29;20476;-68
2020/12/22 01:04:06;;;;;;;8.02;1.77;;;14.20;99.90;;;;;;4823639;29;20033;-71
2020/12/22 01:06:37;;;;;;;7.90;1.70;;;14.20;99.90;;;;;;4823554;29;20479;-69
2020/12/22 01:09:04;;;;;;;6.30;1.65;;;14.20;99.90;;;;;;4823400;29;20045;-69
2020/12/22 01:11:37;;;;;;;6.45;1.90;;;14.30;99.90;;;;;;4823205;29;20038;-68
2020/12/22 01:14:04;;;;;;;7.15;1.90;;;14.30;99.90;;;;;;4825403;29;20487;-68
2020/12/22 01:16:30;;;;;;;6.82;1.75;;;14.30;99.90;;;;;;4826262;29;20129;-71
2020/12/22 01:18:55;;;;;;;6.30;1.85;;;14.30;99.90;;;;;;4826268;29;20163;-71
2020/12/22 01:24:43;;;;;;;3.55;1.40;;;14.30;99.90;;;;;;4826252;29;20034;-70
2020/12/22 01:27:08;;;;;;;5.53;1.45;;;14.30;99.90;;;;;;4826180;29;20030;-69
2020/12/22 01:29:34;;;;;;;4.50;1.42;;;14.30;99.90;;;;;;4826274;29;20030;-69
2020/12/22 01:31:59;;;;;;;5.45;1.40;;;14.30;99.90;;;;;;4826406;29;20085;-69
2020/12/22 01:34:25;;;;;;;4.50;1.23;;;14.30;99.90;;;;;;4826395;29;20475;-69
2020/12/22 01:36:51;;;;;;;4.63;1.30;;;14.30;99.90;;;;;;4826340;29;20034;-70
2020/12/22 01:39:17;;;;;;;2.20;1.10;;;14.30;99.90;;;;;;4826252;29;20127;-70
2020/12/22 01:41:42;;;;;;;4.13;1.10;;;14.30;99.90;;;;;;4826285;29;20439;-69
2020/12/22 01:44:09;;;;;;;6.25;1.65;;;14.30;99.90;;;;;;4825911;29;20475;-70
2020/12/22 01:46:51;;;;;;;3.72;1.00;;;14.30;99.90;;;;;;4826242;29;20050;-68
2020/12/22 01:49:23;;;;;;;5.40;1.30;;;14.30;99.90;;;;;;4825836;29;20388;-69
2020/12/22 01:51:51;;;;;;;4.32;1.30;;;14.40;99.90;;;;;;4826162;29;20117;-67
2020/12/22 01:54:17;;;;;;;2.40;1.10;;;14.30;99.90;;;;;;4826173;29;20079;-72
2020/12/22 01:56:44;;;;;;;2.45;1.30;;;14.40;99.90;;;;;;4826089;29;20117;-70
2020/12/22 01:59:10;;;;;;;2.53;1.10;;;14.40;99.90;;;;;;4825558;29;20383;-69
2020/12/22 02:01:36;;;;;;;4.72;1.20;;;14.40;99.90;;;;;;4825981;29;20038;-74
2020/12/22 02:04:04;;;;;;;4.75;1.30;;;14.40;99.90;;;;;;4825448;29;20041;-69
2020/12/22 02:09:51;;;;;;;3.38;1.17;;;14.40;99.90;;;;;;4825815;29;20033;-71
2020/12/22 02:12:17;;;;;;;2.83;1.02;;;14.40;99.90;;;;;;4825906;29;20030;-72
2020/12/22 02:14:43;;;;;;;3.20;1.15;;;14.40;99.90;;;;;;4826014;29;20030;-71
2020/12/22 02:17:09;;;;;;;2.70;1.20;;;14.40;99.90;;;;;;4825468;29;20042;-72
2020/12/22 02:19:36;;;;;;;1.95;0.90;;;14.40;99.90;;;;;;4825366;29;20060;-70
2020/12/22 02:22:02;;;;;;;2.25;1.02;;;14.50;99.90;;;;;;4825372;29;20094;-69
2020/12/22 02:24:27;;;;;;;1.45;0.90;;;14.50;99.90;;;;;;4825485;29;20133;-70
2020/12/22 02:26:53;;;;;;;3.75;1.00;;;14.50;99.90;;;;;;4825282;29;20542;-69
2020/12/22 02:29:19;;;;;;;1.20;0.90;;;14.40;99.90;;;;;;4825295;29;20035;-70
2020/12/22 02:31:44;;;;;;;1.45;0.88;;;14.40;99.90;;;;;;4824978;29;20142;-69
2020/12/22 02:34:10;;;;;;;1.88;1.02;;;14.40;99.90;;;;;;4825142;29;20369;-72
2020/12/22 02:39:57;;;;;;;1.67;1.00;;;14.50;99.90;;;;;;4825220;29;20514;-71
2020/12/22 02:42:23;;;;;;;1.75;1.17;;;14.50;99.90;;;;;;4825108;29;20027;-70
2020/12/22 02:44:49;;;;;;;2.72;1.40;;;14.40;99.90;;;;;;4824986;29;20045;-70
2020/12/22 02:47:15;;;;;;;1.92;1.17;;;14.50;99.90;;;;;;4825367;29;20119;-73
2020/12/22 02:49:42;;;;;;;3.10;1.30;;;14.50;99.90;;;;;;4825239;29;20036;-72
2020/12/22 02:52:09;;;;;;;2.47;1.30;;;14.40;99.90;;;;;;4825307;29;20083;-73
2020/12/22 02:54:35;;;;;;;2.25;1.13;;;14.50;99.90;;;;;;4824769;29;20083;-72
2020/12/22 02:57:01;;;;;;;3.22;1.55;;;14.50;99.90;;;;;;4824907;29;20026;-70
2020/12/22 02:59:26;;;;;;;2.30;1.02;;;14.50;99.90;;;;;;4824627;29;20101;-69
2020/12/22 03:01:52;;;;;;;0.90;0.88;;;14.50;99.90;;;;;;4824994;29;20115;-68
2020/12/22 03:04:18;;;;;;;1.25;1.10;;;14.50;99.90;;;;;;4824857;29;20027;-69
2020/12/22 03:10:10;;;;;;;1.38;1.10;;;14.40;99.90;;;;;;4825065;29;20403;-69
2020/12/22 03:12:36;;;;;;;3.25;1.00;;;14.50;99.90;;;;;;4824911;29;20054;-71
2020/12/22 03:15:03;;;;;;;1.58;1.02;;;14.50;99.90;;;;;;4824842;29;20532;-71
2020/12/22 03:17:29;;;;;;;1.95;0.90;;;14.50;99.90;;;;;;4824838;29;20038;-70
2020/12/22 03:19:55;;;;;;;2.17;0.90;;;14.50;99.90;;;;;;4824702;29;20549;-68
2020/12/22 03:22:21;;;;;;;2.50;0.85;;;14.50;99.90;;;;;;4824433;29;20564;-69
2020/12/22 03:24:46;;;;;;;1.10;0.70;;;14.50;99.90;;;;;;4824460;29;20062;-71
2020/12/22 03:27:12;;;;;;;1.10;0.60;;;14.50;99.90;;;;;;4824688;29;20031;-70
2020/12/22 03:29:38;;;;;;;2.15;0.85;;;14.50;99.90;;;;;;4824246;29;20042;-69
2020/12/22 03:32:04;;;;;;;2.63;0.77;;;14.50;99.90;;;;;;4824597;29;20038;-68
2020/12/22 03:34:29;;;;;;;2.25;0.80;;;14.50;99.90;;;;;;4824541;29;20069;-69
2020/12/22 03:40:17;;;;;;;1.05;0.40;;;14.60;99.90;;;;;;4824353;29;20104;-69
2020/12/22 03:42:43;;;;;;;1.80;0.52;;;14.50;99.90;;;;;;4824460;29;20111;-69
2020/12/22 03:45:10;;;;;;;2.55;0.50;;;14.60;99.90;;;;;;4824548;29;20035;-70
2020/12/22 03:47:35;;;;;;;1.75;0.50;;;14.60;99.90;;;;;;4824226;29;20475;-72
2020/12/22 03:50:03;;;;;;;2.08;0.43;;;14.50;99.90;;;;;;4824409;29;20058;-72
2020/12/22 03:52:29;;;;;;;2.35;0.50;;;14.60;99.90;;;;;;4823957;29;20039;-68
2020/12/22 03:54:54;;;;;;;0.43;0.38;;;14.50;99.90;;;;;;4824084;29;20040;-68
2020/12/22 03:57:20;;;;;;;2.50;0.50;;;14.50;99.90;;;;;;4824107;29;20097;-69
2020/12/22 03:59:45;;;;;;;1.45;0.40;;;14.50;99.90;;;;;;4824089;29;20038;-69
2020/12/22 04:02:11;;;;;;;2.30;0.40;;;14.50;99.90;;;;;;4824308;29;20031;-70
2020/12/22 04:04:37;;;;;;;2.75;0.32;;;14.50;99.90;;;;;;4824109;29;20043;-71
2020/12/22 04:10:24;;;;;;;1.52;0.40;;;14.50;99.90;;;;;;4824050;29;20620;-69
2020/12/22 04:12:50;;;;;;;2.78;0.50;;;14.40;99.90;;;;;;4824107;29;20122;-71
2020/12/22 04:15:15;;;;;;;3.25;0.50;;;14.40;99.90;;;;;;4823943;29;20379;-73
2020/12/22 04:17:41;;;;;;;3.72;0.60;;;14.50;99.90;;;;;;4823840;29;20047;-71
2020/12/22 04:20:07;;;;;;;2.50;0.70;;;14.40;99.90;;;;;;4824113;29;20125;-70
2020/12/22 04:25:55;;;;;;;4.35;0.80;;;14.50;99.90;;;;;;4824120;29;20083;-71
2020/12/22 04:28:21;;;;;;;4.68;0.60;;;14.50;99.90;;;;;;4824043;29;20026;-71
2020/12/22 04:30:46;;;;;;;2.45;0.50;;;14.50;99.90;;;;;;4823596;29;20062;-68
2020/12/22 04:33:12;;;;;;;3.67;0.82;;;14.50;99.90;;;;;;4823633;29;20114;-72
2020/12/22 04:35:39;;;;;;;6.05;0.80;;;14.40;99.90;;;;;;4823668;29;20027;-71
2020/12/22 04:38:06;;;;;;;4.43;0.60;;;14.40;99.90;;;;;;4823616;29;20043;-71
2020/12/22 04:40:32;;;;;;;3.08;0.65;;;14.40;99.90;;;;;;4823548;29;20533;-72
2020/12/22 04:42:58;;;;;;;4.63;0.70;;;14.40;99.90;;;;;;4823707;29;20547;-70
2020/12/22 04:45:26;;;;;;;2.60;0.50;;;14.40;99.90;;;;;;4823543;29;20026;-71
2020/12/22 04:47:52;;;;;;;4.00;0.93;;;14.40;99.90;;;;;;4824409;29;20034;-69
2020/12/22 04:50:17;;;;;;;3.30;0.60;;;14.40;99.90;;;;;;4827087;29;20038;-71
2020/12/22 04:56:08;;;;;;;4.10;0.68;;;14.40;99.90;;;;;;4827110;29;20464;-69
2020/12/22 04:58:34;;;;;;;3.92;0.80;;;14.40;99.90;;;;;;4826813;29;20034;-69
2020/12/22 05:01:00;;;;;;;3.75;0.80;;;14.30;99.90;;;;;;4826895;29;20111;-71
2020/12/22 05:03:26;;;;;;;5.15;0.85;;;14.40;99.90;;;;;;4826935;29;20097;-70
2020/12/22 05:05:53;;;;;;;4.63;0.70;;;14.40;99.90;;;;;;4826661;29;20514;-70
2020/12/22 05:08:18;;;;;;;5.25;0.90;;;14.40;99.90;;;;;;4827098;29;20078;-69
2020/12/22 05:10:46;;;;;;;4.43;1.10;;;14.40;99.90;;;;;;4826765;29;20429;-70
2020/12/22 05:13:13;;;;;;;5.30;0.88;;;14.30;99.90;;;;;;4826375;29;20484;-71
2020/12/22 05:15:43;;;;;;;4.63;1.15;;;14.40;99.90;;;;;;4826520;29;20046;-69
2020/12/22 05:18:09;;;;;;;5.78;0.60;;;14.40;99.90;;;;;;4826748;29;20033;-72
2020/12/22 05:27:06;;;;;;;4.47;0.75;;;14.40;99.90;;;;;;4826633;29;20085;-70
2020/12/22 05:29:32;;;;;;;4.20;0.70;;;14.40;99.90;;;;;;4826094;29;20034;-70
2020/12/22 05:31:58;;;;;;;5.43;0.90;;;14.40;99.90;;;;;;4826231;29;20042;-71
2020/12/22 05:34:27;;;;;;;4.10;0.57;;;14.40;99.90;;;;;;4826185;29;20034;-70
2020/12/22 05:36:58;;;;;;;3.95;0.57;;;14.40;99.90;;;;;;4826179;29;20492;-70
2020/12/22 05:39:25;;;;;;;2.60;0.52;;;14.40;99.90;;;;;;4826329;29;20074;-70
2020/12/22 05:41:51;;;;;;;3.05;0.65;;;14.40;99.90;;;;;;4826359;29;20073;-69
2020/12/22 05:44:16;;;;;;;4.03;0.70;;;14.40;99.90;;;;;;4825956;29;20499;-72
2020/12/22 05:46:42;;;;;;;4.72;0.52;;;14.40;99.90;;;;;;4825986;29;20034;-69
2020/12/22 05:49:10;;;;;;;4.22;0.90;;;14.40;99.90;;;;;;4826109;29;20102;-69
2020/12/22 05:51:36;;;;;;;4.20;0.60;;;14.40;99.90;;;;;;4826174;29;20033;-69
2020/12/22 05:54:06;;;;;;;4.28;0.77;;;14.40;99.90;;;;;;4826154;29;20035;-68
2020/12/22 05:56:33;;;;;;;4.53;0.80;;;14.40;99.90;;;;;;4826038;29;20444;-69
2020/12/22 05:58:59;;;;;;;5.75;0.60;;;14.40;99.90;;;;;;4825704;29;20172;-69
2020/12/22 06:01:33;;;;;;;5.97;0.80;;;14.40;99.90;;;;;;4825842;29;20042;-72
2020/12/22 06:04:03;;;;;;;2.08;0.70;;;14.30;99.90;;;;;;4825809;29;20022;-71
2020/12/22 06:06:32;;;;;;;2.85;0.50;;;14.30;99.90;;;;;;4825642;29;20499;-70
2020/12/22 06:08:58;;;;;;;4.22;0.75;;;14.30;99.90;;;;;;4825957;29;20067;-69
2020/12/22 06:11:27;;;;;;;3.85;0.70;;;14.30;99.90;;;;;;4825638;29;20121;-70
2020/12/22 06:13:53;;;;;;;5.57;0.90;;;14.30;99.90;;;;;;4825556;29;20538;-70
2020/12/22 06:16:20;;;;;;;5.53;0.90;;;14.30;99.90;;;;;;4825568;29;20122;-72
2020/12/22 06:18:49;;;;;;;5.47;0.85;;;14.30;99.90;;;;;;4825494;29;20031;-70
2020/12/22 06:21:18;;;;;;;4.18;0.98;;;14.30;99.90;;;;;;4825484;29;20042;-72
2020/12/22 06:23:48;;;;;;;5.72;0.75;;;14.40;99.90;;;;;;4825798;29;20030;-70
2020/12/22 06:26:17;;;;;;;2.30;0.70;;;14.40;99.90;;;;;;4825452;29;20042;-72
2020/12/22 06:28:42;;;;;;;5.68;0.60;;;14.40;99.90;;;;;;4827392;29;20033;-71
2020/12/22 06:31:18;;;;;;;2.95;0.60;;;14.40;99.90;;;;;;4826371;29;20062;-69
2020/12/22 06:33:44;;;;;;;3.00;0.93;;;14.40;99.90;;;;;;4825528;29;20031;-69
2020/12/22 06:36:13;;;;;;;2.03;0.52;;;14.40;99.90;;;;;;4825166;29;20034;-71
2020/12/22 06:38:56;;;;;;;4.40;0.77;;;14.40;99.90;;;;;;4825234;29;20049;-69
2020/12/22 06:41:34;;;;;;;4.00;0.70;;;14.40;99.90;;;;;;4825221;29;20050;-69
2020/12/22 06:44:25;;;;;;;6.95;0.70;;;14.40;99.90;;;;;;4825468;29;20026;-70
2020/12/22 06:46:56;;;;;;;5.10;0.65;;;14.40;99.90;;;;;;4825340;29;20133;-69
2020/12/22 06:49:51;;;;;;;3.50;0.50;;;14.40;99.90;;;;;;4825205;29;20030;-69
2020/12/22 06:52:46;;;;;;;4.22;0.75;;;14.40;99.90;;;;;;4825161;29;20039;-69
2020/12/22 06:55:12;;;;;;;5.93;0.82;;;14.30;99.90;;;;;;4733453;30;20170;-68
2020/12/22 06:57:49;;;;;;;7.28;1.05;;;14.30;99.90;;;;;;4733450;30;20033;-70
2020/12/22 07:00:34;;;;;;;3.03;0.80;;;14.30;99.90;;;;;;4733262;30;20052;-70
2020/12/22 07:03:10;;;;;;;6.85;1.10;;;14.30;99.90;;;;;;4733297;30;20035;-69
2020/12/22 07:05:46;;;;;;;4.55;1.00;;;14.30;99.90;;;;;;4733233;30;20033;-69
2020/12/22 07:08:17;;;;;;;5.60;0.85;;;14.20;99.90;;;;;;4733226;30;20466;-67
2020/12/22 07:10:45;;;;;;;4.90;0.85;;;14.20;99.90;;;;;;4732516;30;20036;-69
2020/12/22 07:13:12;;;;;;;5.32;1.00;;;14.30;99.90;;;;;;4733112;30;20044;-68
2020/12/22 07:15:43;;;;;;;5.07;0.95;;;14.30;99.90;;;;;;4733187;30;20032;-72
2020/12/22 07:18:39;;;;;;;5.65;0.98;;;14.30;99.90;;;;;;4733088;30;20154;-70
2020/12/22 07:21:05;;;;;;;7.00;0.90;;;14.20;99.90;;;;;;4733041;30;20048;-70
2020/12/22 07:23:31;;;;;;;2.80;0.77;;;14.20;99.90;;;;;;4733038;30;20606;-69
2020/12/22 07:25:59;;;;;;;4.45;0.85;;;14.20;99.90;;;;;;4733032;30;20067;-70
2020/12/22 07:28:25;;;;;;;5.65;1.15;;;14.20;99.90;;;;;;4733000;30;20484;-69
2020/12/22 07:30:50;;;;;;;5.72;1.13;;;14.20;99.90;;;;;;4751067;29;20491;-70
2020/12/22 07:33:19;;;;;;;5.78;1.50;;;14.10;99.90;;;;;;4824665;29;20037;-70
2020/12/22 07:35:48;;;;;;;5.25;1.00;;;14.10;99.90;;;;;;4824592;29;20035;-71
2020/12/22 07:38:14;;;;;;;6.25;1.10;;;14.20;99.90;;;;;;4824454;29;20031;-69
2020/12/22 07:40:41;;;;;;;5.72;1.58;;;14.10;99.90;;;;;;4824014;29;20049;-69
2020/12/22 07:43:08;;;;;;;5.97;1.50;;;14.10;99.90;;;;;;4824281;29;20117;-69
2020/12/22 07:45:35;;;;;;;6.88;1.52;;;14.10;99.90;;;;;;4824186;29;20057;-70
2020/12/22 07:48:08;;;;;;;8.70;2.35;;;14.10;99.90;;;;;;4824211;29;20038;-70
2020/12/22 07:50:34;;;;;;;7.40;1.27;;;14.70;99.90;;;;;;4824361;29;20031;-60
2020/12/22 07:53:01;;;;;;;5.30;1.20;;;15.20;99.90;;;;;;4823978;29;20548;-60
2020/12/22 07:55:35;;;;;;;5.47;0.88;;;15.40;99.90;;;;;;4823979;29;20065;-59
2020/12/22 07:58:01;;;;;;;6.15;1.50;;;15.30;99.90;;;;;;4824030;29;20075;-59
2020/12/22 08:00:27;;;;;;;8.88;1.30;;;15.50;99.90;;;;;;4823832;29;20042;-60
2020/12/22 08:02:53;;;;;;;6.43;1.23;;;14.80;99.90;;;;;;4824175;29;20038;-63
2020/12/22 08:05:18;;;;;;;6.13;1.30;;;14.70;99.90;;;;;;4823970;29;20395;-59
2020/12/22 08:07:52;;;;;;;8.25;1.10;;;15.10;99.90;;;;;;4824084;29;20027;-59
2020/12/22 08:10:18;;;;;;;8.23;1.27;;;15.00;99.90;;;;;;4823899;29;20030;-60
2020/12/22 08:12:50;;;;;;;5.38;1.13;;;14.50;99.90;;;;;;4823800;29;20343;-58
2020/12/22 08:15:15;;;;;;;9.60;1.30;;;14.90;99.90;;;;;;4823905;29;20035;-59
2020/12/22 08:17:45;;;;;;;7.97;1.33;;;15.30;99.90;;;;;;4823811;29;20026;-59
2020/12/22 08:20:12;;;;;;;7.55;1.20;;;15.90;99.90;;;;;;4824056;29;20074;-58
2020/12/22 08:22:41;;;;;;;4.00;0.98;;;16.00;99.90;;;;;;4825116;29;20121;-65
2020/12/22 08:25:07;;;;;;;4.25;1.15;;;17.30;99.90;;;;;;4827485;29;20038;-59
2020/12/22 08:27:33;;;;;;;5.78;1.00;;;17.10;99.90;;;;;;4827686;29;20034;-69
2020/12/22 08:29:59;;;;;;;7.28;1.42;;;17.40;99.90;;;;;;4826999;29;20050;-59
2020/12/22 08:32:27;;;;;;;5.68;1.23;;;18.30;99.90;;;;;;4827261;29;20045;-59
2020/12/22 08:34:53;;;;;;;9.93;1.48;;;18.30;99.90;;;;;;4827459;29;20066;-71
2020/12/22 08:37:25;;;;;;;8.68;1.30;;;16.70;99.90;;;;;;4827154;29;20493;-74
2020/12/22 08:39:51;;;;;;;12.07;1.55;;;15.20;99.90;;;;;;4827320;29;20042;-71
2020/12/22 08:42:18;;;;;;;5.78;1.10;;;14.60;99.90;;;;;;4827071;29;20528;-72
2020/12/22 08:44:51;;;;;;;4.53;1.10;;;14.10;99.90;;;;;;4832418;29;20038;-70
2020/12/22 08:47:18;;;;;;;8.10;1.20;;;13.80;99.90;;;;;;4827231;29;20034;-72
2020/12/22 08:49:45;;;;;;;5.90;1.05;;;13.70;99.90;;;;;;4827200;29;20053;-72
2020/12/22 08:52:10;;;;;;;4.00;1.10;;;13.70;99.90;;;;;;4827013;29;20026;-73
2020/12/22 08:54:36;;;;;;;7.18;1.10;;;13.60;99.90;;;;;;4826687;29;20437;-73
2020/12/22 08:57:10;;;;;;;5.72;1.20;;;13.50;99.90;;;;;;4826685;29;20032;-72
2020/12/22 08:59:36;;;;;;;6.20;1.40;;;13.60;99.90;;;;;;4826924;29;20045;-72
2020/12/22 09:02:01;;;;;;;5.78;1.25;;;13.50;99.90;;;;;;4826809;29;20540;-72
2020/12/22 09:04:29;;;;;;;5.55;1.10;;;13.40;99.90;;;;;;4826517;29;20106;-71
2020/12/22 09:06:55;;;;;;;6.72;1.92;;;13.50;99.90;;;;;;4826675;29;20030;-73
2020/12/22 09:12:42;;;;;;;23.27;14.20;;;13.40;99.90;;;;;;4826662;29;20079;-72
2020/12/22 09:15:08;;;;;;;12.35;5.35;;;13.10;99.90;;;;;;4826541;29;20035;-73
2020/12/22 09:17:38;;;;;;;8.73;5.82;;;13.00;99.90;;;;;;4826394;29;20113;-73
2020/12/22 09:20:07;;;;;;;7.03;2.25;;;12.90;99.90;;;;;;4826531;29;20042;-76
2020/12/22 09:22:34;;;;;;;10.55;4.68;;;12.90;99.90;;;;;;4826574;29;20037;-78
2020/12/22 09:25:04;;;;;;;13.35;7.93;;;12.90;99.90;;;;;;4826005;29;20383;-76
2020/12/22 09:27:42;;;;;;;8.07;1.85;;;12.90;99.90;;;;;;4825905;29;20543;-78
2020/12/22 09:30:13;;;;;;;9.10;2.30;;;13.00;99.90;;;;;;4825950;29;20062;-80
2020/12/22 09:32:39;;;;;;;9.10;2.28;;;13.10;99.90;;;;;;4826467;29;20031;-78
2020/12/22 09:35:05;;;;;;;5.93;1.98;;;13.10;99.90;;;;;;4825112;29;20027;-77
2020/12/22 09:37:31;;;;;;;9.43;1.75;;;13.30;99.90;;;;;;4826151;29;20072;-78
2020/12/22 09:39:57;;;;;;;9.18;1.67;;;13.20;99.90;;;;;;4825903;29;20100;-78
2020/12/22 09:42:23;;;;;;;11.15;4.15;;;13.30;99.90;;;;;;4825982;29;20070;-78
2020/12/22 09:44:50;;;;;;;7.00;1.65;;;13.30;99.90;;;;;;4826109;29;20049;-77
2020/12/22 09:47:16;;;;;;;9.32;1.83;;;13.40;99.90;;;;;;4826153;29;20083;-77
2020/12/22 09:49:42;;;;;;;10.82;1.50;;;13.40;99.90;;;;;;4825805;29;20069;-77
2020/12/22 09:52:08;;;;;;;18.23;7.35;;;13.50;99.90;;;;;;4826051;29;20058;-76
2020/12/22 09:57:56;;;;;;;5.53;1.70;;;13.60;99.90;;;;;;4826024;29;20041;-75
2020/12/22 10:00:21;;;;;;;9.25;1.67;;;13.60;99.90;;;;;;4825546;29;20047;-76
2020/12/22 10:02:47;;;;;;;8.20;1.65;;;13.50;99.90;;;;;;4825821;29;20037;-78
2020/12/22 10:05:13;;;;;;;14.27;7.28;;;13.60;99.90;;;;;;4825489;29;20056;-75
2020/12/22 10:07:38;;;;;;;11.25;2.30;;;13.60;99.90;;;;;;4825635;29;20034;-76
2020/12/22 10:10:04;;;;;;;13.27;5.95;;;13.60;99.90;;;;;;4825885;29;20034;-76
2020/12/22 10:12:30;;;;;;;9.48;2.25;;;13.60;99.90;;;;;;4825632;29;20037;-75
2020/12/22 10:14:55;;;;;;;9.45;1.88;;;13.60;99.90;;;;;;4825637;29;20038;-77
2020/12/22 10:17:21;;;;;;;18.95;6.80;;;13.60;99.90;;;;;;4825455;29;20360;-75
2020/12/22 10:19:46;;;;;;;6.78;2.00;;;13.60;99.90;;;;;;4825487;29;20494;-78
2020/12/22 10:22:12;;;;;;;9.50;3.63;;;13.60;99.90;;;;;;4825336;29;20494;-76
2020/12/22 10:28:00;;;;;;;10.65;2.10;;;13.60;99.90;;;;;;4825378;29;20134;-77
2020/12/22 10:30:27;;;;;;;9.27;2.10;;;13.60;99.90;;;;;;4825335;29;20066;-78
2020/12/22 10:32:52;;;;;;;6.40;1.67;;;13.60;99.90;;;;;;4825429;29;20117;-79
2020/12/22 10:35:18;;;;;;;8.27;2.63;;;13.40;99.90;;;;;;4825413;29;20118;-77
2020/12/22 10:37:43;;;;;;;7.80;1.90;;;13.30;99.90;;;;;;4825252;29;20030;-78
2020/12/22 10:40:09;;;;;;;10.20;4.45;;;13.30;99.90;;;;;;4825169;29;20042;-76
2020/12/22 10:42:35;;;;;;;10.38;3.25;;;13.20;99.90;;;;;;4825008;29;20031;-77
2020/12/22 10:45:00;;;;;;;12.95;7.03;;;13.20;99.90;;;;;;4825062;29;20026;-77
2020/12/22 10:47:26;;;;;;;34.42;20.83;;;13.20;99.90;;;;;;4825001;29;20034;-80
2020/12/22 10:49:52;;;;;;;16.33;8.23;;;13.30;99.90;;;;;;4825150;29;20029;-80
2020/12/22 10:52:17;;;;;;;28.42;17.35;;;13.40;99.90;;;;;;4824793;29;20038;-77
2020/12/22 10:58:05;;;;;;;14.73;2.58;;;13.60;99.90;;;;;;4825365;29;20069;-78
2020/12/22 11:00:31;;;;;;;10.73;2.50;;;13.70;99.90;;;;;;4824823;29;20070;-79
2020/12/22 11:03:00;;;;;;;13.90;3.03;;;13.70;99.90;;;;;;4824988;29;20027;-78
2020/12/22 11:08:10;;;;;;;11.00;2.63;;;13.70;99.90;;;;;;4824580;29;20065;-75
2020/12/22 11:10:36;;;;;;;11.02;2.83;;;13.70;99.90;;;;;;4824823;29;20074;-79
2020/12/22 11:13:03;;;;;;;16.42;2.97;;;13.70;99.90;;;;;;4824648;29;20109;-74
2020/12/22 11:15:28;;;;;;;10.15;3.05;;;13.70;99.90;;;;;;4824673;29;20030;-76
2020/12/22 11:17:54;;;;;;;10.07;2.67;;;13.80;99.90;;;;;;4824469;29;20087;-78
2020/12/22 11:20:20;;;;;;;8.30;2.05;;;13.90;99.90;;;;;;4824265;29;20050;-76
2020/12/22 11:22:47;;;;;;;9.70;2.40;;;14.00;99.90;;;;;;4824713;29;20031;-78
2020/12/22 11:28:34;;;;;;;8.80;2.25;;;14.10;99.90;;;;;;4824594;29;20099;-74
2020/12/22 11:31:00;;;;;;;9.52;2.63;;;14.40;99.90;;;;;;4824272;29;20494;-76
2020/12/22 11:33:26;;;;;;;6.38;2.20;;;14.60;99.90;;;;;;4824479;29;20033;-78
2020/12/22 11:35:51;;;;;;;9.55;2.33;;;14.60;99.90;;;;;;4824524;29;20082;-74
2020/12/22 11:38:17;;;;;;;8.10;1.77;;;14.50;99.90;;;;;;4824132;29;20503;-71
2020/12/22 11:40:42;;;;;;;10.52;1.75;;;14.30;99.90;;;;;;4824448;29;20074;-70
2020/12/22 11:43:09;;;;;;;9.38;1.63;;;14.50;99.90;;;;;;4824489;29;20026;-71
2020/12/22 11:45:35;;;;;;;7.45;2.15;;;14.70;99.90;;;;;;4831048;29;20034;-70
2020/12/22 11:48:00;;;;;;;10.73;4.18;;;14.70;99.90;;;;;;4825535;29;20138;-71
2020/12/22 11:50:26;;;;;;;7.05;1.70;;;14.80;99.90;;;;;;4824208;29;20156;-69
2020/12/22 11:52:51;;;;;;;5.53;1.45;;;14.70;99.90;;;;;;4824370;29;20033;-69
2020/12/22 11:58:39;;;;;;;4.97;1.50;;;14.60;99.90;;;;;;4824194;29;20464;-69
2020/12/22 12:01:05;;;;;;;10.95;4.15;;;14.80;99.90;;;;;;4824068;29;20034;-70
2020/12/22 12:03:30;;;;;;;7.03;1.60;;;14.60;99.90;;;;;;4823911;29;20027;-71
2020/12/22 12:05:56;;;;;;;7.57;1.45;;;14.60;99.90;;;;;;4824352;29;20045;-69
2020/12/22 12:08:22;;;;;;;4.38;1.50;;;14.50;99.90;;;;;;4824143;29;20467;-69
2020/12/22 12:14:09;;;;;;;4.85;1.30;;;14.60;99.90;;;;;;4824023;29;20049;-71
2020/12/22 12:16:35;;;;;;;6.60;1.70;;;14.70;99.90;;;;;;4823968;29;20031;-70
2020/12/22 12:19:01;;;;;;;4.25;1.30;;;14.70;99.90;;;;;;4823952;29;20046;-73
2020/12/22 12:21:28;;;;;;;4.72;1.30;;;14.60;99.90;;;;;;4823823;29;20035;-70
2020/12/22 12:23:54;;;;;;;6.63;1.50;;;14.60;99.90;;;;;;4823934;29;20035;-70
2020/12/22 12:26:23;;;;;;;5.35;1.60;;;14.60;99.90;;;;;;4823996;29;20053;-70
2020/12/22 12:28:48;;;;;;;5.90;1.50;;;14.60;99.90;;;;;;4823985;29;20461;-70
2020/12/22 12:31:15;;;;;;;6.43;1.40;;;14.70;99.90;;;;;;4810490;29;20103;-70
2020/12/22 12:33:41;;;;;;;5.82;4.72;;;14.50;99.90;;;;;;4805685;29;20035;-70
2020/12/22 12:36:10;;;;;;;3.67;1.35;;;14.30;99.90;;;;;;4805676;29;20026;-71
2020/12/22 12:38:36;;;;;;;5.68;1.60;;;14.30;99.90;;;;;;4805503;29;20046;-71
2020/12/22 12:44:24;;;;;;;5.60;1.80;;;14.90;99.90;;;;;;4805318;29;20130;-71
2020/12/22 12:46:53;;;;;;;3.47;1.30;;;15.10;99.90;;;;;;4805429;29;20113;-71
2020/12/22 12:49:19;;;;;;;4.60;1.50;;;15.20;99.90;;;;;;4805451;29;20035;-70
2020/12/22 12:51:45;;;;;;;4.97;2.28;;;15.30;99.90;;;;;;4805639;29;20058;-69
2020/12/22 12:54:12;;;;;;;4.90;1.65;;;15.10;99.90;;;;;;4805237;29;20472;-70
2020/12/22 12:56:38;;;;;;;5.53;1.60;;;15.00;99.90;;;;;;4805313;29;20088;-70
2020/12/22 12:59:03;;;;;;;8.77;5.72;;;14.80;99.90;;;;;;4805323;29;20065;-70
2020/12/22 13:01:29;;;;;;;5.03;3.88;;;14.60;99.90;;;;;;4804827;29;20484;-70
2020/12/22 13:03:55;;;;;;;20.90;17.13;;;14.80;99.90;;;;;;4805096;29;20555;-70
2020/12/22 13:06:20;;;;;;;4.85;1.58;;;14.60;99.90;;;;;;4805311;29;20035;-71
2020/12/22 13:08:46;;;;;;;4.72;1.55;;;14.60;99.90;;;;;;4805854;29;20035;-71
2020/12/22 13:14:34;;;;;;;4.80;1.38;;;14.70;99.90;;;;;;4808564;29;20085;-69
2020/12/22 13:17:00;;;;;;;5.72;1.42;;;14.60;99.90;;;;;;4808186;29;20039;-69
2020/12/22 13:19:26;;;;;;;4.68;1.88;;;14.60;99.90;;;;;;4808401;29;20054;-70
2020/12/22 13:21:51;;;;;;;5.35;1.77;;;14.60;99.90;;;;;;4801106;29;20620;-69
2020/12/22 13:24:17;;;;;;;7.20;2.00;;;14.60;99.90;;;;;;4808312;29;20460;-69
2020/12/22 13:26:43;;;;;;;7.40;4.10;;;14.60;99.90;;;;;;4808185;29;20058;-71
2020/12/22 13:29:10;;;;;;;8.02;3.78;;;14.50;99.90;;;;;;4807924;29;20369;-69
2020/12/22 13:31:36;;;;;;;5.15;2.10;;;14.50;99.90;;;;;;4823558;29;20062;-69
2020/12/22 13:34:03;;;;;;;6.00;1.40;;;14.40;99.90;;;;;;4826008;29;20030;-69
2020/12/22 13:36:29;;;;;;;5.22;1.30;;;14.60;99.90;;;;;;4826239;29;20038;-70
2020/12/22 13:38:55;;;;;;;5.47;1.20;;;14.60;99.90;;;;;;4826331;29;20463;-70
2020/12/22 13:44:43;;;;;;;4.28;1.83;;;14.40;99.90;;;;;;4826142;29;20415;-71
2020/12/22 13:47:08;;;;;;;4.97;1.08;;;14.30;99.90;;;;;;4825924;29;20031;-70
2020/12/22 13:49:34;;;;;;;4.32;1.02;;;14.30;99.90;;;;;;4825713;29;20042;-72
2020/12/22 13:52:00;;;;;;;4.88;1.33;;;14.30;99.90;;;;;;4825977;29;20039;-69
2020/12/22 14:00:52;;;;;;;4.95;1.52;;;14.30;99.90;;;;;;4832618;29;20071;-70
2020/12/22 14:03:17;;;;;;;4.50;1.58;;;14.30;99.90;;;;;;4825622;29;20502;-69
2020/12/22 14:05:43;;;;;;;3.90;1.35;;;14.30;99.90;;;;;;4825542;29;20034;-71
2020/12/22 14:08:09;;;;;;;5.97;2.85;;;14.40;99.90;;;;;;4825854;29;20107;-70